createdAt,value
2023-04-16T00:23:48.663Z,100490.56
2023-04-16T00:53:51.693Z,100498.59
2023-04-16T01:23:56.687Z,100495.19
2023-04-16T01:53:59.628Z,100499.60
2023-04-16T02:24:02.868Z,100503.69
2023-04-16T02:54:05.693Z,100518.27
2023-04-16T03:24:09.750Z,100529.38
2023-04-16T03:54:12.574Z,100554.48
2023-04-16T04:24:16.986Z,100592.64
2023-04-16T04:54:19.859Z,100614.37
2023-04-16T05:24:23.929Z,100645.85
2023-04-16T05:54:26.802Z,100657.36
2023-04-16T06:24:31.406Z,100684.53
2023-04-16T06:54:34.272Z,100698.95
2023-04-16T07:24:37.623Z,100721.13
2023-04-16T07:54:40.568Z,100750.91
2023-04-16T08:24:44.094Z,100763.88
2023-04-16T08:54:46.929Z,100779.11
2023-04-16T09:25:00.264Z,100804.70
2023-04-16T09:55:03.347Z,100814.55
2023-04-16T10:25:07.583Z,100829.42
2023-04-16T10:55:10.774Z,100851.66
2023-04-16T11:25:14.984Z,100867.11
2023-04-16T11:55:17.823Z,100874.61
2023-04-16T12:25:21.606Z,100874.62
2023-04-16T12:55:24.466Z,100887.67
2023-04-16T13:25:27.720Z,100884.86
2023-04-16T13:55:30.727Z,100900.00
2023-04-16T14:25:34.279Z,100908.22
2023-04-16T14:55:37.414Z,100912.53
2023-04-16T15:25:40.831Z,100935.40
2023-04-16T15:55:43.818Z,100942.64
2023-04-16T16:25:47.511Z,100973.33
2023-04-16T16:55:50.522Z,100992.86
2023-04-16T17:25:55.711Z,101011.88
2023-04-16T17:55:58.656Z,101055.05
2023-04-16T18:26:02.660Z,101089.77
2023-04-16T18:56:05.658Z,101120.02
2023-04-16T19:26:09.964Z,101123.83
2023-04-16T19:56:12.869Z,101137.89
2023-04-16T20:26:16.335Z,101136.42
2023-04-16T20:56:19.324Z,101151.50
2023-04-16T21:26:23.605Z,101159.69
2023-04-16T21:56:26.424Z,101157.36
2023-04-16T22:26:30.128Z,101168.50
2023-04-16T22:56:33.045Z,101187.22
2023-04-16T23:26:36.899Z,101174.41
2023-04-16T23:56:39.755Z,101174.41
